sensor_id;sensor_type;location;lat;lon;timestamp;temperature;humidity
13433;DHT22;6789;47.678;9.158;2023-04-06T00:01:05;3.30;99.90
13433;DHT22;6789;47.678;9.158;2023-04-06T00:05:57;3.20;99.90
13433;DHT22;6789;47.678;9.158;2023-04-06T00:11:03;3.20;99.90
13433;DHT22;6789;47.678;9.158;2023-04-06T00:15:55;3.00;99.90
13433;DHT22;6789;47.678;9.158;2023-04-06T00:20:47;3.00;99.90
13433;DHT22;6789;47.678;9.158;2023-04-06T00:25:53;2.80;99.90
13433;DHT22;6789;47.678;9.158;2023-04-06T00:30:59;2.70;99.90
13433;DHT22;6789;47.678;9.158;2023-04-06T00:36:04;2.70;99.90
13433;DHT22;6789;47.678;9.158;2023-04-06T00:40:57;2.50;99.90
13433;DHT22;6789;47.678;9.158;2023-04-06T00:45:51;2.40;99.90
13433;DHT22;6789;47.678;9.158;2023-04-06T00:51:27;2.40;99.90
13433;DHT22;6789;47.678;9.158;2023-04-06T00:56:19;2.30;99.90
13433;DHT22;6789;47.678;9.158;2023-04-06T01:01:11;2.30;99.90
13433;DHT22;6789;47.678;9.158;2023-04-06T01:06:03;2.20;99.90
13433;DHT22;6789;47.678;9.158;2023-04-06T01:10:54;2.30;99.90
13433;DHT22;6789;47.678;9.158;2023-04-06T01:15:46;2.30;99.90
13433;DHT22;6789;47.678;9.158;2023-04-06T01:20:38;2.30;99.90
13433;DHT22;6789;47.678;9.158;2023-04-06T01:25:30;2.30;99.90
13433;DHT22;6789;47.678;9.158;2023-04-06T01:30:22;2.20;99.90
13433;DHT22;6789;47.678;9.158;2023-04-06T01:35:14;2.10;99.90
13433;DHT22;6789;47.678;9.158;2023-04-06T01:40:06;2.00;99.90
13433;DHT22;6789;47.678;9.158;2023-04-06T01:44:58;1.90;99.90
13433;DHT22;6789;47.678;9.158;2023-04-06T01:49:50;1.80;99.90
13433;DHT22;6789;47.678;9.158;2023-04-06T01:54:44;1.80;99.90
13433;DHT22;6789;47.678;9.158;2023-04-06T01:59:36;1.80;99.90
13433;DHT22;6789;47.678;9.158;2023-04-06T02:04:28;1.70;99.90
13433;DHT22;6789;47.678;9.158;2023-04-06T02:09:19;1.70;99.90
13433;DHT22;6789;47.678;9.158;2023-04-06T02:14:11;1.70;99.90
13433;DHT22;6789;47.678;9.158;2023-04-06T02:19:03;1.80;99.90
13433;DHT22;6789;47.678;9.158;2023-04-06T02:23:55;1.70;99.90
13433;DHT22;6789;47.678;9.158;2023-04-06T02:28:47;1.80;99.90
13433;DHT22;6789;47.678;9.158;2023-04-06T02:33:38;1.70;99.90
13433;DHT22;6789;47.678;9.158;2023-04-06T02:38:30;1.60;99.90
13433;DHT22;6789;47.678;9.158;2023-04-06T02:43:22;1.40;99.90
13433;DHT22;6789;47.678;9.158;2023-04-06T02:48:14;1.30;99.90
13433;DHT22;6789;47.678;9.158;2023-04-06T02:53:06;1.20;99.90
13433;DHT22;6789;47.678;9.158;2023-04-06T02:57:57;1.20;99.90
13433;DHT22;6789;47.678;9.158;2023-04-06T03:02:49;1.40;99.90
13433;DHT22;6789;47.678;9.158;2023-04-06T03:07:41;1.40;99.90
13433;DHT22;6789;47.678;9.158;2023-04-06T03:12:33;1.30;99.90
13433;DHT22;6789;47.678;9.158;2023-04-06T03:17:25;1.20;99.90
13433;DHT22;6789;47.678;9.158;2023-04-06T03:22:16;1.10;99.90
13433;DHT22;6789;47.678;9.158;2023-04-06T03:27:08;1.10;99.90
13433;DHT22;6789;47.678;9.158;2023-04-06T03:32:00;1.00;99.90
13433;DHT22;6789;47.678;9.158;2023-04-06T03:36:52;1.00;99.90
13433;DHT22;6789;47.678;9.158;2023-04-06T03:41:59;0.90;99.90
13433;DHT22;6789;47.678;9.158;2023-04-06T03:46:51;0.90;99.90
13433;DHT22;6789;47.678;9.158;2023-04-06T03:51:43;0.90;99.90
13433;DHT22;6789;47.678;9.158;2023-04-06T03:56:35;0.90;99.90
13433;DHT22;6789;47.678;9.158;2023-04-06T04:01:27;0.80;99.90
13433;DHT22;6789;47.678;9.158;2023-04-06T04:06:19;0.80;99.90
13433;DHT22;6789;47.678;9.158;2023-04-06T04:11:11;0.90;99.90
13433;DHT22;6789;47.678;9.158;2023-04-06T04:16:07;0.80;99.90
13433;DHT22;6789;47.678;9.158;2023-04-06T04:20:58;0.80;99.90
13433;DHT22;6789;47.678;9.158;2023-04-06T04:25:50;0.70;99.90
13433;DHT22;6789;47.678;9.158;2023-04-06T04:30:42;0.80;99.90
13433;DHT22;6789;47.678;9.158;2023-04-06T04:35:34;0.80;99.90
13433;DHT22;6789;47.678;9.158;2023-04-06T04:40:29;0.70;99.90
13433;DHT22;6789;47.678;9.158;2023-04-06T04:45:21;0.60;99.90
13433;DHT22;6789;47.678;9.158;2023-04-06T04:50:13;0.60;99.90
13433;DHT22;6789;47.678;9.158;2023-04-06T04:55:05;0.60;99.90
13433;DHT22;6789;47.678;9.158;2023-04-06T04:59:57;0.60;99.90
13433;DHT22;6789;47.678;9.158;2023-04-06T05:04:49;0.60;99.90
13433;DHT22;6789;47.678;9.158;2023-04-06T05:09:41;0.60;99.90
13433;DHT22;6789;47.678;9.158;2023-04-06T05:14:33;0.70;99.90
13433;DHT22;6789;47.678;9.158;2023-04-06T05:19:25;1.20;99.90
13433;DHT22;6789;47.678;9.158;2023-04-06T05:24:16;1.90;99.90
13433;DHT22;6789;47.678;9.158;2023-04-06T05:29:10;2.70;99.90
13433;DHT22;6789;47.678;9.158;2023-04-06T05:34:02;3.40;99.90
13433;DHT22;6789;47.678;9.158;2023-04-06T05:38:54;4.20;99.90
13433;DHT22;6789;47.678;9.158;2023-04-06T05:43:47;4.70;99.90
13433;DHT22;6789;47.678;9.158;2023-04-06T05:48:38;5.60;99.90
13433;DHT22;6789;47.678;9.158;2023-04-06T05:53:30;6.40;99.90
13433;DHT22;6789;47.678;9.158;2023-04-06T05:58:36;7.10;99.90
13433;DHT22;6789;47.678;9.158;2023-04-06T06:03:28;7.70;99.90
13433;DHT22;6789;47.678;9.158;2023-04-06T06:08:20;7.90;99.90
13433;DHT22;6789;47.678;9.158;2023-04-06T06:13:13;8.30;99.90
13433;DHT22;6789;47.678;9.158;2023-04-06T06:18:05;8.50;99.90
13433;DHT22;6789;47.678;9.158;2023-04-06T06:22:58;8.60;99.90
13433;DHT22;6789;47.678;9.158;2023-04-06T06:28:04;8.50;99.90
13433;DHT22;6789;47.678;9.158;2023-04-06T06:32:56;8.50;99.90
13433;DHT22;6789;47.678;9.158;2023-04-06T06:37:48;8.00;99.90
13433;DHT22;6789;47.678;9.158;2023-04-06T06:42:40;7.80;99.90
13433;DHT22;6789;47.678;9.158;2023-04-06T06:47:31;7.30;99.90
13433;DHT22;6789;47.678;9.158;2023-04-06T06:52:23;6.90;99.90
13433;DHT22;6789;47.678;9.158;2023-04-06T06:57:15;6.80;99.90
13433;DHT22;6789;47.678;9.158;2023-04-06T07:02:07;6.80;99.90
13433;DHT22;6789;47.678;9.158;2023-04-06T07:06:59;6.70;99.90
13433;DHT22;6789;47.678;9.158;2023-04-06T07:11:51;6.70;99.90
13433;DHT22;6789;47.678;9.158;2023-04-06T07:16:56;6.80;99.90
13433;DHT22;6789;47.678;9.158;2023-04-06T07:21:48;6.90;99.90
13433;DHT22;6789;47.678;9.158;2023-04-06T07:27:11;6.60;99.90
13433;DHT22;6789;47.678;9.158;2023-04-06T07:32:03;6.80;99.90
13433;DHT22;6789;47.678;9.158;2023-04-06T07:37:56;7.10;99.90
13433;DHT22;6789;47.678;9.158;2023-04-06T07:42:49;7.30;99.90
13433;DHT22;6789;47.678;9.158;2023-04-06T07:47:58;7.40;99.90
13433;DHT22;6789;47.678;9.158;2023-04-06T07:53:05;7.40;99.90
13433;DHT22;6789;47.678;9.158;2023-04-06T07:57:59;7.50;99.90
13433;DHT22;6789;47.678;9.158;2023-04-06T08:03:04;7.40;99.90
13433;DHT22;6789;47.678;9.158;2023-04-06T08:08:10;7.80;99.90
13433;DHT22;6789;47.678;9.158;2023-04-06T08:13:16;7.80;99.90
13433;DHT22;6789;47.678;9.158;2023-04-06T08:18:22;7.90;99.90
13433;DHT22;6789;47.678;9.158;2023-04-06T08:23:16;8.30;99.90
13433;DHT22;6789;47.678;9.158;2023-04-06T08:28:08;8.30;99.90
13433;DHT22;6789;47.678;9.158;2023-04-06T08:33:06;8.40;99.90
13433;DHT22;6789;47.678;9.158;2023-04-06T08:37:58;8.50;99.90
13433;DHT22;6789;47.678;9.158;2023-04-06T08:42:52;8.70;99.90
13433;DHT22;6789;47.678;9.158;2023-04-06T08:47:53;9.00;99.90
13433;DHT22;6789;47.678;9.158;2023-04-06T08:52:59;9.20;99.90
13433;DHT22;6789;47.678;9.158;2023-04-06T08:58:07;9.20;99.90
13433;DHT22;6789;47.678;9.158;2023-04-06T09:03:00;9.20;99.90
13433;DHT22;6789;47.678;9.158;2023-04-06T09:08:07;9.30;99.90
13433;DHT22;6789;47.678;9.158;2023-04-06T09:13:05;9.40;99.90
13433;DHT22;6789;47.678;9.158;2023-04-06T09:18:05;9.70;99.90
13433;DHT22;6789;47.678;9.158;2023-04-06T09:22:58;9.70;99.90
13433;DHT22;6789;47.678;9.158;2023-04-06T09:28:05;9.80;99.90
13433;DHT22;6789;47.678;9.158;2023-04-06T09:32:59;9.80;99.90
13433;DHT22;6789;47.678;9.158;2023-04-06T09:38:10;10.10;99.90
13433;DHT22;6789;47.678;9.158;2023-04-06T09:43:28;10.20;99.90
13433;DHT22;6789;47.678;9.158;2023-04-06T09:48:35;10.60;99.90
13433;DHT22;6789;47.678;9.158;2023-04-06T09:53:44;10.60;99.90
13433;DHT22;6789;47.678;9.158;2023-04-06T09:59:02;10.90;99.90
13433;DHT22;6789;47.678;9.158;2023-04-06T10:04:13;10.60;99.90
13433;DHT22;6789;47.678;9.158;2023-04-06T10:09:24;11.00;99.90
13433;DHT22;6789;47.678;9.158;2023-04-06T10:14:38;10.80;99.90
13433;DHT22;6789;47.678;9.158;2023-04-06T10:20:05;11.00;99.90
13433;DHT22;6789;47.678;9.158;2023-04-06T10:25:08;11.30;99.90
13433;DHT22;6789;47.678;9.158;2023-04-06T10:30:15;11.10;99.90
13433;DHT22;6789;47.678;9.158;2023-04-06T10:35:11;11.10;99.90
13433;DHT22;6789;47.678;9.158;2023-04-06T10:40:29;11.20;99.90
13433;DHT22;6789;47.678;9.158;2023-04-06T10:45:38;11.30;99.90
13433;DHT22;6789;47.678;9.158;2023-04-06T10:50:51;11.90;99.90
13433;DHT22;6789;47.678;9.158;2023-04-06T10:55:59;12.10;99.90
13433;DHT22;6789;47.678;9.158;2023-04-06T11:01:12;12.20;99.90
13433;DHT22;6789;47.678;9.158;2023-04-06T11:06:39;12.20;99.90
13433;DHT22;6789;47.678;9.158;2023-04-06T11:11:45;12.20;99.10
13433;DHT22;6789;47.678;9.158;2023-04-06T11:16:48;12.10;98.40
13433;DHT22;6789;47.678;9.158;2023-04-06T11:22:07;12.00;98.50
13433;DHT22;6789;47.678;9.158;2023-04-06T11:27:14;12.00;98.10
13433;DHT22;6789;47.678;9.158;2023-04-06T11:32:24;11.90;97.40
13433;DHT22;6789;47.678;9.158;2023-04-06T11:37:33;11.70;98.70
13433;DHT22;6789;47.678;9.158;2023-04-06T11:43:01;11.70;98.30
13433;DHT22;6789;47.678;9.158;2023-04-06T11:48:25;11.50;97.00
13433;DHT22;6789;47.678;9.158;2023-04-06T11:54:44;11.30;97.20
13433;DHT22;6789;47.678;9.158;2023-04-06T11:59:47;11.50;95.30
13433;DHT22;6789;47.678;9.158;2023-04-06T12:04:41;11.70;95.40
13433;DHT22;6789;47.678;9.158;2023-04-06T12:09:47;12.00;95.30
13433;DHT22;6789;47.678;9.158;2023-04-06T12:15:06;12.10;95.30
13433;DHT22;6789;47.678;9.158;2023-04-06T12:20:13;12.10;94.00
13433;DHT22;6789;47.678;9.158;2023-04-06T12:25:19;12.30;93.40
13433;DHT22;6789;47.678;9.158;2023-04-06T12:30:26;12.50;93.70
13433;DHT22;6789;47.678;9.158;2023-04-06T12:35:36;12.70;91.70
13433;DHT22;6789;47.678;9.158;2023-04-06T12:40:42;12.90;91.70
13433;DHT22;6789;47.678;9.158;2023-04-06T12:45:36;13.20;88.70
13433;DHT22;6789;47.678;9.158;2023-04-06T12:50:42;13.00;86.50
13433;DHT22;6789;47.678;9.158;2023-04-06T12:55:50;13.00;87.10
13433;DHT22;6789;47.678;9.158;2023-04-06T13:00:58;13.10;85.70
13433;DHT22;6789;47.678;9.158;2023-04-06T13:06:01;13.10;84.10
13433;DHT22;6789;47.678;9.158;2023-04-06T13:11:07;12.90;84.70
13433;DHT22;6789;47.678;9.158;2023-04-06T13:16:14;13.10;83.10
13433;DHT22;6789;47.678;9.158;2023-04-06T13:21:23;13.20;83.60
13433;DHT22;6789;47.678;9.158;2023-04-06T13:26:31;13.50;85.20
13433;DHT22;6789;47.678;9.158;2023-04-06T13:31:37;13.70;85.30
13433;DHT22;6789;47.678;9.158;2023-04-06T13:36:44;13.70;85.90
13433;DHT22;6789;47.678;9.158;2023-04-06T13:41:52;13.60;85.10
13433;DHT22;6789;47.678;9.158;2023-04-06T13:47:01;13.40;87.30
13433;DHT22;6789;47.678;9.158;2023-04-06T13:52:07;13.20;88.40
13433;DHT22;6789;47.678;9.158;2023-04-06T13:57:15;13.00;87.20
13433;DHT22;6789;47.678;9.158;2023-04-06T14:02:21;12.80;88.80
13433;DHT22;6789;47.678;9.158;2023-04-06T14:07:21;12.90;88.70
13433;DHT22;6789;47.678;9.158;2023-04-06T14:12:15;13.10;88.90
13433;DHT22;6789;47.678;9.158;2023-04-06T14:17:14;13.20;89.50
13433;DHT22;6789;47.678;9.158;2023-04-06T14:22:06;13.30;89.00
13433;DHT22;6789;47.678;9.158;2023-04-06T14:26:59;13.30;88.90
13433;DHT22;6789;47.678;9.158;2023-04-06T14:32:06;13.40;88.40
13433;DHT22;6789;47.678;9.158;2023-04-06T14:36:58;13.50;87.50
13433;DHT22;6789;47.678;9.158;2023-04-06T14:41:50;13.80;86.90
13433;DHT22;6789;47.678;9.158;2023-04-06T14:46:56;13.90;86.10
13433;DHT22;6789;47.678;9.158;2023-04-06T14:51:48;14.00;86.20
13433;DHT22;6789;47.678;9.158;2023-04-06T14:56:48;14.10;86.20
13433;DHT22;6789;47.678;9.158;2023-04-06T15:01:45;14.10;86.90
13433;DHT22;6789;47.678;9.158;2023-04-06T15:06:39;14.10;87.70
13433;DHT22;6789;47.678;9.158;2023-04-06T15:11:31;14.00;87.90
13433;DHT22;6789;47.678;9.158;2023-04-06T15:16:23;14.10;87.70
13433;DHT22;6789;47.678;9.158;2023-04-06T15:21:15;14.30;88.20
13433;DHT22;6789;47.678;9.158;2023-04-06T15:26:06;14.40;87.50
13433;DHT22;6789;47.678;9.158;2023-04-06T15:30:58;14.40;87.60
13433;DHT22;6789;47.678;9.158;2023-04-06T15:35:50;14.60;88.40
13433;DHT22;6789;47.678;9.158;2023-04-06T15:40:57;14.70;85.90
13433;DHT22;6789;47.678;9.158;2023-04-06T15:45:48;14.40;85.60
13433;DHT22;6789;47.678;9.158;2023-04-06T15:50:40;14.20;84.40
13433;DHT22;6789;47.678;9.158;2023-04-06T15:55:46;14.00;84.80
13433;DHT22;6789;47.678;9.158;2023-04-06T16:00:37;13.90;83.80
13433;DHT22;6789;47.678;9.158;2023-04-06T16:05:29;13.70;83.80
13433;DHT22;6789;47.678;9.158;2023-04-06T16:10:28;13.60;86.40
13433;DHT22;6789;47.678;9.158;2023-04-06T16:15:22;13.60;86.50
13433;DHT22;6789;47.678;9.158;2023-04-06T16:20:13;13.50;86.10
13433;DHT22;6789;47.678;9.158;2023-04-06T16:25:06;13.50;86.80
13433;DHT22;6789;47.678;9.158;2023-04-06T16:30:13;13.40;86.70
13433;DHT22;6789;47.678;9.158;2023-04-06T16:35:05;13.50;86.30
13433;DHT22;6789;47.678;9.158;2023-04-06T16:40:11;13.60;85.90
13433;DHT22;6789;47.678;9.158;2023-04-06T16:45:04;13.30;86.80
13433;DHT22;6789;47.678;9.158;2023-04-06T16:49:57;13.20;87.90
13433;DHT22;6789;47.678;9.158;2023-04-06T16:54:57;13.00;88.90
13433;DHT22;6789;47.678;9.158;2023-04-06T17:00:07;12.90;90.50
13433;DHT22;6789;47.678;9.158;2023-04-06T17:05:00;12.70;92.10
13433;DHT22;6789;47.678;9.158;2023-04-06T17:09:53;12.50;91.40
13433;DHT22;6789;47.678;9.158;2023-04-06T17:14:45;12.40;91.30
13433;DHT22;6789;47.678;9.158;2023-04-06T17:19:37;12.30;91.90
13433;DHT22;6789;47.678;9.158;2023-04-06T17:24:29;12.20;92.00
13433;DHT22;6789;47.678;9.158;2023-04-06T17:29:20;12.00;90.80
13433;DHT22;6789;47.678;9.158;2023-04-06T17:34:12;12.00;90.80
13433;DHT22;6789;47.678;9.158;2023-04-06T17:39:04;11.80;90.90
13433;DHT22;6789;47.678;9.158;2023-04-06T17:43:55;11.70;91.00
13433;DHT22;6789;47.678;9.158;2023-04-06T17:48:47;11.60;91.10
13433;DHT22;6789;47.678;9.158;2023-04-06T17:53:39;11.50;91.50
13433;DHT22;6789;47.678;9.158;2023-04-06T17:58:32;11.40;91.60
13433;DHT22;6789;47.678;9.158;2023-04-06T18:03:24;11.40;92.00
13433;DHT22;6789;47.678;9.158;2023-04-06T18:08:16;11.30;92.40
13433;DHT22;6789;47.678;9.158;2023-04-06T18:13:07;11.20;92.30
13433;DHT22;6789;47.678;9.158;2023-04-06T18:17:59;11.00;92.60
13433;DHT22;6789;47.678;9.158;2023-04-06T18:22:51;10.90;92.80
13433;DHT22;6789;47.678;9.158;2023-04-06T18:27:43;10.90;92.80
13433;DHT22;6789;47.678;9.158;2023-04-06T18:32:35;10.80;93.30
13433;DHT22;6789;47.678;9.158;2023-04-06T18:37:27;10.80;93.80
13433;DHT22;6789;47.678;9.158;2023-04-06T18:42:18;10.80;94.00
13433;DHT22;6789;47.678;9.158;2023-04-06T18:47:11;10.70;94.30
13433;DHT22;6789;47.678;9.158;2023-04-06T18:52:06;10.90;94.60
13433;DHT22;6789;47.678;9.158;2023-04-06T18:56:58;10.80;94.10
13433;DHT22;6789;47.678;9.158;2023-04-06T19:01:50;10.80;93.20
13433;DHT22;6789;47.678;9.158;2023-04-06T19:06:48;10.90;92.10
13433;DHT22;6789;47.678;9.158;2023-04-06T19:11:54;10.90;92.70
13433;DHT22;6789;47.678;9.158;2023-04-06T19:17:02;10.90;92.90
13433;DHT22;6789;47.678;9.158;2023-04-06T19:22:20;11.00;94.80
13433;DHT22;6789;47.678;9.158;2023-04-06T19:27:20;11.00;95.60
13433;DHT22;6789;47.678;9.158;2023-04-06T19:32:15;10.90;95.80
13433;DHT22;6789;47.678;9.158;2023-04-06T19:37:10;10.90;97.00
13433;DHT22;6789;47.678;9.158;2023-04-06T19:42:16;10.80;98.80
13433;DHT22;6789;47.678;9.158;2023-04-06T19:47:15;10.70;99.90
13433;DHT22;6789;47.678;9.158;2023-04-06T19:52:26;10.50;99.90
13433;DHT22;6789;47.678;9.158;2023-04-06T19:57:33;10.50;99.90
13433;DHT22;6789;47.678;9.158;2023-04-06T20:02:41;10.40;99.90
13433;DHT22;6789;47.678;9.158;2023-04-06T20:08:12;10.30;99.90
13433;DHT22;6789;47.678;9.158;2023-04-06T20:13:35;10.30;99.90
13433;DHT22;6789;47.678;9.158;2023-04-06T20:18:29;10.20;99.90
13433;DHT22;6789;47.678;9.158;2023-04-06T20:23:21;10.10;99.90
13433;DHT22;6789;47.678;9.158;2023-04-06T20:28:14;10.10;99.90
13433;DHT22;6789;47.678;9.158;2023-04-06T20:33:07;9.90;99.90
13433;DHT22;6789;47.678;9.158;2023-04-06T20:38:00;9.80;99.90
13433;DHT22;6789;47.678;9.158;2023-04-06T20:42:55;9.80;99.90
13433;DHT22;6789;47.678;9.158;2023-04-06T20:47:53;10.00;99.90
13433;DHT22;6789;47.678;9.158;2023-04-06T20:52:45;9.80;99.90
13433;DHT22;6789;47.678;9.158;2023-04-06T20:57:41;9.70;99.90
13433;DHT22;6789;47.678;9.158;2023-04-06T21:02:35;9.70;99.90
13433;DHT22;6789;47.678;9.158;2023-04-06T21:07:27;9.70;99.90
13433;DHT22;6789;47.678;9.158;2023-04-06T21:12:21;9.60;99.90
13433;DHT22;6789;47.678;9.158;2023-04-06T21:17:12;9.60;99.90
13433;DHT22;6789;47.678;9.158;2023-04-06T21:22:04;9.50;99.90
13433;DHT22;6789;47.678;9.158;2023-04-06T21:26:56;9.40;99.90
13433;DHT22;6789;47.678;9.158;2023-04-06T21:31:47;9.40;99.90
13433;DHT22;6789;47.678;9.158;2023-04-06T21:36:40;9.30;99.90
13433;DHT22;6789;47.678;9.158;2023-04-06T21:41:32;9.20;99.90
13433;DHT22;6789;47.678;9.158;2023-04-06T21:46:25;9.10;99.90
13433;DHT22;6789;47.678;9.158;2023-04-06T21:51:18;9.00;99.90
13433;DHT22;6789;47.678;9.158;2023-04-06T21:56:10;8.80;99.90
13433;DHT22;6789;47.678;9.158;2023-04-06T22:01:09;8.70;99.90
13433;DHT22;6789;47.678;9.158;2023-04-06T22:06:03;8.60;99.90
13433;DHT22;6789;47.678;9.158;2023-04-06T22:10:57;8.50;99.90
13433;DHT22;6789;47.678;9.158;2023-04-06T22:15:51;8.50;99.90
13433;DHT22;6789;47.678;9.158;2023-04-06T22:20:45;8.40;99.90
13433;DHT22;6789;47.678;9.158;2023-04-06T22:25:38;8.40;99.90
13433;DHT22;6789;47.678;9.158;2023-04-06T22:30:37;8.30;99.90
13433;DHT22;6789;47.678;9.158;2023-04-06T22:35:30;8.40;99.90
13433;DHT22;6789;47.678;9.158;2023-04-06T22:40:26;8.40;99.90
13433;DHT22;6789;47.678;9.158;2023-04-06T22:45:20;8.40;99.90
13433;DHT22;6789;47.678;9.158;2023-04-06T22:50:23;8.30;99.90
13433;DHT22;6789;47.678;9.158;2023-04-06T22:55:22;8.10;99.90
13433;DHT22;6789;47.678;9.158;2023-04-06T23:00:16;8.00;99.90
13433;DHT22;6789;47.678;9.158;2023-04-06T23:05:10;8.00;99.90
13433;DHT22;6789;47.678;9.158;2023-04-06T23:10:02;7.90;99.90
13433;DHT22;6789;47.678;9.158;2023-04-06T23:14:54;7.90;99.90
13433;DHT22;6789;47.678;9.158;2023-04-06T23:19:45;8.00;99.90
13433;DHT22;6789;47.678;9.158;2023-04-06T23:24:38;8.00;99.90
13433;DHT22;6789;47.678;9.158;2023-04-06T23:29:30;8.00;99.90
13433;DHT22;6789;47.678;9.158;2023-04-06T23:34:22;8.00;99.90
13433;DHT22;6789;47.678;9.158;2023-04-06T23:39:14;7.90;99.90
13433;DHT22;6789;47.678;9.158;2023-04-06T23:44:06;7.90;99.90
13433;DHT22;6789;47.678;9.158;2023-04-06T23:48:57;7.90;99.90
13433;DHT22;6789;47.678;9.158;2023-04-06T23:53:49;7.90;99.90
13433;DHT22;6789;47.678;9.158;2023-04-06T23:58:41;7.80;99.90
